Time;durP1;ratioP1;P1;durP2;ratioP2;P2;SDS_P1;SDS_P2;PMS_P1;PMS_P2;Temp;Humidity;BMP_temperature;BMP_pressure;BME280_temperature;BME280_humidity;BME280_pressure;Samples;Min_cycle;Max_cycle;Signal;HPM_P1;HPM_P2
2023/06/25 00:01:38;;;;;;;122.33;118.27;;;17.50;99.90;;;;;;4897245;29;20237;-82
2023/06/25 00:04:04;;;;;;;119.43;115.40;;;17.50;99.90;;;;;;4911018;29;20312;-82
2023/06/25 00:06:30;;;;;;;129.83;125.50;;;17.50;99.90;;;;;;4928610;29;20236;-82
2023/06/25 00:08:56;;;;;;;127.43;123.20;;;17.50;99.90;;;;;;4929664;29;20186;-82
2023/06/25 00:11:21;;;;;;;124.07;119.80;;;17.50;99.90;;;;;;4913279;29;20237;-82
2023/06/25 00:13:47;;;;;;;128.80;124.57;;;17.40;99.90;;;;;;4928899;29;20653;-82
2023/06/25 00:16:13;;;;;;;126.33;122.17;;;17.40;99.90;;;;;;4912962;29;20707;-82
2023/06/25 00:18:39;;;;;;;120.80;116.80;;;17.40;99.90;;;;;;4912893;29;20222;-83
2023/06/25 00:21:05;;;;;;;122.63;118.37;;;17.40;99.90;;;;;;4928905;28;20282;-82
2023/06/25 00:23:31;;;;;;;132.50;127.97;;;17.30;99.90;;;;;;4929022;29;20186;-82
2023/06/25 00:25:56;;;;;;;125.17;121.07;;;17.30;99.90;;;;;;4897179;29;20236;-82
2023/06/25 00:28:22;;;;;;;137.17;132.77;;;17.20;99.90;;;;;;4929911;28;20221;-82
2023/06/25 00:30:48;;;;;;;123.63;119.43;;;17.20;99.90;;;;;;4929658;28;20260;-82
2023/06/25 00:33:13;;;;;;;120.53;116.53;;;17.10;99.90;;;;;;4928856;28;20213;-83
2023/06/25 00:36:05;;;;;;;135.47;131.00;;;17.10;99.90;;;;;;4929017;29;20213;-83
2023/06/25 00:38:32;;;;;;;121.90;117.87;;;17.20;99.90;;;;;;4928576;29;20209;-82
2023/06/25 00:40:58;;;;;;;126.07;121.83;;;17.20;99.90;;;;;;4928027;29;20597;-82
2023/06/25 00:43:24;;;;;;;121.77;117.87;;;17.10;99.90;;;;;;4928384;29;20230;-82
2023/06/25 00:45:49;;;;;;;126.60;122.40;;;17.10;99.90;;;;;;4912372;29;20691;-82
2023/06/25 00:48:15;;;;;;;119.27;115.33;;;17.10;99.90;;;;;;4912554;28;20190;-83
2023/06/25 00:50:42;;;;;;;131.07;126.73;;;17.10;99.90;;;;;;4913409;29;20862;-83
2023/06/25 00:53:09;;;;;;;126.97;122.87;;;17.10;99.90;;;;;;4912877;29;20229;-82
2023/06/25 00:55:35;;;;;;;126.93;122.60;;;17.00;99.90;;;;;;4928265;29;20218;-83
2023/06/25 00:58:01;;;;;;;125.83;121.73;;;16.90;99.90;;;;;;4929388;28;20378;-83
2023/06/25 01:00:30;;;;;;;129.63;125.23;;;16.80;99.90;;;;;;4896933;29;20267;-82
2023/06/25 01:03:05;;;;;;;123.13;118.97;;;16.70;99.90;;;;;;4944840;29;20226;-82
2023/06/25 01:05:39;;;;;;;124.60;120.27;;;16.70;99.90;;;;;;4944461;29;20221;-82
2023/06/25 01:08:08;;;;;;;131.63;127.07;;;16.80;99.90;;;;;;4928191;29;20692;-83
2023/06/25 01:10:35;;;;;;;132.83;128.50;;;16.80;99.90;;;;;;4927984;29;20812;-82
2023/06/25 01:13:01;;;;;;;125.53;121.33;;;16.70;99.90;;;;;;4912259;29;20226;-83
2023/06/25 01:15:27;;;;;;;127.67;123.47;;;16.70;99.90;;;;;;4944125;28;20702;-82
2023/06/25 01:17:53;;;;;;;121.00;116.87;;;16.50;99.90;;;;;;4928758;29;20186;-82
2023/06/25 01:20:21;;;;;;;131.67;127.10;;;16.50;99.90;;;;;;4927960;29;20245;-82
2023/06/25 01:22:48;;;;;;;123.43;119.23;;;16.50;99.90;;;;;;4896942;29;20236;-82
2023/06/25 01:25:14;;;;;;;119.53;115.27;;;16.50;99.90;;;;;;4896643;29;20222;-82
2023/06/25 01:27:40;;;;;;;131.67;126.87;;;16.50;99.90;;;;;;4927751;29;20283;-82
2023/06/25 01:30:07;;;;;;;127.43;123.03;;;16.40;99.90;;;;;;4927895;28;20726;-81
2023/06/25 01:32:33;;;;;;;116.27;112.33;;;16.40;99.90;;;;;;4928722;29;20193;-82
2023/06/25 01:34:59;;;;;;;125.73;121.27;;;16.40;99.90;;;;;;4927659;28;20624;-82
2023/06/25 01:37:28;;;;;;;122.83;118.73;;;16.40;99.90;;;;;;4912206;29;20311;-82
2023/06/25 01:39:55;;;;;;;130.17;125.67;;;16.40;99.90;;;;;;4928115;29;20250;-82
2023/06/25 01:42:21;;;;;;;132.10;127.50;;;16.50;99.90;;;;;;4911978;28;20237;-82
2023/06/25 01:44:47;;;;;;;120.07;115.83;;;16.50;99.90;;;;;;4912766;29;20272;-83
2023/06/25 01:47:13;;;;;;;131.30;126.93;;;16.60;99.90;;;;;;4943888;28;20229;-83
2023/06/25 01:49:39;;;;;;;135.00;130.23;;;16.50;99.90;;;;;;4927685;29;20273;-83
2023/06/25 01:52:07;;;;;;;121.37;116.90;;;16.50;99.90;;;;;;4929326;29;20222;-83
2023/06/25 01:54:33;;;;;;;116.07;112.00;;;16.40;99.90;;;;;;4900168;29;20218;-83
2023/06/25 01:57:00;;;;;;;135.90;131.33;;;16.20;99.90;;;;;;4931950;29;20182;-83
2023/06/25 01:59:27;;;;;;;123.70;119.43;;;16.10;99.90;;;;;;4931439;29;20413;-83
2023/06/25 02:01:53;;;;;;;120.97;116.80;;;16.20;99.90;;;;;;4931480;28;20221;-83
2023/06/25 02:04:19;;;;;;;123.20;118.60;;;16.20;99.90;;;;;;4913154;29;20245;-83
2023/06/25 02:06:45;;;;;;;115.77;111.67;;;16.20;99.90;;;;;;4932141;28;20408;-83
2023/06/25 02:09:13;;;;;;;128.43;123.80;;;16.20;99.90;;;;;;4931039;28;20186;-83
2023/06/25 02:11:39;;;;;;;115.50;111.30;;;16.20;99.90;;;;;;4931383;29;20218;-83
2023/06/25 02:14:05;;;;;;;118.83;113.90;;;16.30;99.90;;;;;;4930646;29;20312;-84
2023/06/25 02:16:31;;;;;;;125.13;120.67;;;16.40;99.90;;;;;;4930679;29;20277;-83
2023/06/25 02:18:58;;;;;;;123.40;118.60;;;16.40;99.90;;;;;;4899291;29;20214;-83
2023/06/25 02:21:24;;;;;;;127.70;122.77;;;16.40;99.90;;;;;;4930697;28;20566;-83
2023/06/25 02:23:50;;;;;;;133.00;128.23;;;16.40;99.90;;;;;;4915687;29;20249;-83
2023/06/25 02:26:15;;;;;;;133.27;128.47;;;16.40;99.90;;;;;;4930610;29;20230;-83
2023/06/25 02:28:41;;;;;;;116.70;112.40;;;16.40;99.90;;;;;;4930788;29;20217;-83
2023/06/25 02:31:07;;;;;;;124.47;120.03;;;16.40;99.90;;;;;;4914871;29;20229;-83
2023/06/25 02:33:33;;;;;;;122.43;117.67;;;16.30;99.90;;;;;;4914521;29;20250;-83
2023/06/25 02:35:58;;;;;;;121.67;117.37;;;16.30;99.90;;;;;;4931089;29;20186;-82
2023/06/25 02:38:24;;;;;;;120.57;116.17;;;16.30;99.90;;;;;;4930532;29;20225;-83
2023/06/25 02:40:50;;;;;;;125.83;121.40;;;16.30;99.90;;;;;;4898973;29;20226;-83
2023/06/25 02:43:16;;;;;;;125.80;120.63;;;16.30;99.90;;;;;;4930536;29;20246;-83
2023/06/25 02:45:41;;;;;;;119.60;115.37;;;16.30;99.90;;;;;;4898735;29;20312;-83
2023/06/25 02:48:07;;;;;;;118.67;114.07;;;16.30;99.90;;;;;;4931556;28;20179;-83
2023/06/25 02:50:33;;;;;;;116.20;111.83;;;16.30;99.90;;;;;;4899564;29;20297;-84
2023/06/25 02:52:59;;;;;;;125.77;120.73;;;16.30;99.90;;;;;;4914422;29;20536;-83
2023/06/25 02:55:25;;;;;;;120.73;115.90;;;16.30;99.90;;;;;;4931291;28;20600;-83
2023/06/25 02:57:51;;;;;;;124.80;120.37;;;16.20;99.90;;;;;;4929759;29;20225;-83
2023/06/25 03:00:17;;;;;;;123.30;118.73;;;16.30;99.90;;;;;;4930709;28;20205;-83
2023/06/25 03:02:43;;;;;;;127.20;122.40;;;16.20;99.90;;;;;;4929501;29;20309;-83
2023/06/25 03:05:08;;;;;;;118.13;113.77;;;16.20;99.90;;;;;;4913987;29;20309;-83
2023/06/25 03:07:34;;;;;;;127.67;122.87;;;16.20;99.90;;;;;;4930651;28;20683;-83
2023/06/25 03:10:00;;;;;;;119.90;115.47;;;16.30;99.90;;;;;;4914040;29;20238;-83
2023/06/25 03:12:25;;;;;;;111.53;107.30;;;16.20;99.90;;;;;;4930084;29;20728;-83
2023/06/25 03:14:51;;;;;;;137.27;131.60;;;16.20;99.90;;;;;;4930300;29;20494;-83
2023/06/25 03:17:17;;;;;;;115.97;111.37;;;16.20;99.90;;;;;;4914101;29;20234;-83
2023/06/25 03:19:43;;;;;;;121.80;117.50;;;16.10;99.90;;;;;;4913907;29;20250;-83
2023/06/25 03:22:08;;;;;;;118.60;114.13;;;16.00;99.90;;;;;;4914208;29;20224;-83
2023/06/25 03:24:34;;;;;;;116.70;112.20;;;16.00;99.90;;;;;;4929482;29;20221;-82
2023/06/25 03:27:00;;;;;;;116.63;112.40;;;16.10;99.90;;;;;;4930235;29;20237;-82
2023/06/25 03:29:26;;;;;;;118.53;113.97;;;16.00;99.90;;;;;;4914280;29;20220;-82
2023/06/25 03:31:51;;;;;;;125.03;120.03;;;16.10;99.90;;;;;;4897967;29;20692;-84
2023/06/25 03:34:17;;;;;;;114.33;109.80;;;16.10;99.90;;;;;;4898183;29;20268;-83
2023/06/25 03:36:43;;;;;;;116.10;111.43;;;16.00;99.90;;;;;;4930538;28;20260;-83
2023/06/25 03:39:08;;;;;;;113.53;109.33;;;16.00;99.90;;;;;;4929146;28;20555;-83
2023/06/25 03:41:34;;;;;;;125.90;121.23;;;16.00;99.90;;;;;;4914159;29;20544;-82
2023/06/25 03:44:00;;;;;;;130.27;125.73;;;16.00;99.90;;;;;;4913445;29;20228;-82
2023/06/25 03:46:25;;;;;;;124.87;120.20;;;15.90;99.90;;;;;;4913577;29;20225;-82
2023/06/25 03:48:51;;;;;;;122.70;118.23;;;15.90;99.90;;;;;;4928900;29;20804;-83
2023/06/25 03:51:17;;;;;;;126.93;121.57;;;15.90;99.90;;;;;;4913560;28;20208;-83
2023/06/25 03:53:43;;;;;;;117.73;113.20;;;16.00;99.90;;;;;;4914005;29;20195;-82
2023/06/25 03:56:09;;;;;;;121.03;116.37;;;16.00;99.90;;;;;;4913335;29;20836;-82
2023/06/25 03:58:34;;;;;;;120.93;116.37;;;16.10;99.90;;;;;;4913383;29;20691;-82
2023/06/25 04:01:00;;;;;;;125.80;120.83;;;16.20;99.90;;;;;;4913133;29;20306;-83
2023/06/25 04:03:27;;;;;;;132.90;127.70;;;16.30;99.90;;;;;;4897408;29;20313;-82
2023/06/25 04:05:52;;;;;;;131.23;126.37;;;16.30;99.90;;;;;;4929416;29;20186;-82
2023/06/25 04:08:18;;;;;;;115.40;111.03;;;16.40;99.90;;;;;;4928909;29;20269;-81
2023/06/25 04:10:44;;;;;;;131.47;126.43;;;16.40;99.90;;;;;;4897243;29;20729;-82
2023/06/25 04:13:10;;;;;;;126.53;121.90;;;16.50;99.90;;;;;;4912890;29;20229;-82
2023/06/25 04:15:35;;;;;;;132.37;127.67;;;16.50;99.90;;;;;;4929219;28;20249;-83
2023/06/25 04:18:01;;;;;;;129.77;125.10;;;16.50;99.90;;;;;;4897265;28;20205;-82
2023/06/25 04:20:27;;;;;;;143.20;137.90;;;16.60;99.90;;;;;;4913608;29;20186;-82
2023/06/25 04:22:54;;;;;;;136.50;131.33;;;16.70;99.90;;;;;;4928350;29;20300;-82
2023/06/25 04:25:20;;;;;;;149.00;143.60;;;16.80;99.90;;;;;;4928593;29;20221;-82
2023/06/25 04:27:47;;;;;;;138.57;133.60;;;16.80;99.90;;;;;;4929834;28;20229;-82
2023/06/25 04:30:13;;;;;;;142.40;137.17;;;16.90;99.90;;;;;;4929753;28;20655;-82
2023/06/25 04:32:39;;;;;;;144.13;138.73;;;17.10;99.90;;;;;;4930575;29;20201;-82
2023/06/25 04:35:05;;;;;;;147.30;142.10;;;17.30;99.90;;;;;;4928419;29;20679;-82
2023/06/25 04:37:31;;;;;;;153.63;147.80;;;17.40;99.90;;;;;;4912707;29;20345;-83
2023/06/25 04:39:56;;;;;;;150.07;144.43;;;17.50;99.90;;;;;;4928350;29;20305;-82
2023/06/25 04:42:22;;;;;;;162.73;156.90;;;17.60;99.90;;;;;;4929570;28;20306;-82
2023/06/25 04:44:49;;;;;;;167.77;161.43;;;17.70;99.90;;;;;;4913049;29;20178;-83
2023/06/25 04:47:15;;;;;;;165.80;159.70;;;17.80;99.90;;;;;;4929614;28;20222;-82
2023/06/25 04:49:41;;;;;;;174.37;167.60;;;17.80;99.90;;;;;;4928014;29;20330;-82
2023/06/25 04:52:07;;;;;;;179.83;173.67;;;17.80;99.90;;;;;;4928323;29;20273;-83
2023/06/25 04:54:32;;;;;;;169.33;163.23;;;17.90;99.90;;;;;;4929611;28;20466;-82
2023/06/25 04:56:58;;;;;;;183.87;176.47;;;18.00;99.90;;;;;;4929796;29;20198;-83
2023/06/25 04:59:24;;;;;;;180.43;173.90;;;18.10;99.90;;;;;;4896870;29;20338;-83
2023/06/25 05:01:50;;;;;;;196.40;189.70;;;18.20;99.90;;;;;;4912400;29;20235;-83
2023/06/25 05:04:16;;;;;;;179.97;173.40;;;18.30;99.90;;;;;;4927823;29;20456;-83
2023/06/25 05:06:42;;;;;;;191.53;185.03;;;18.40;99.90;;;;;;4896871;29;20261;-82
2023/06/25 05:09:07;;;;;;;182.80;176.00;;;18.40;99.90;;;;;;4928066;28;20679;-83
2023/06/25 05:11:33;;;;;;;180.23;173.90;;;18.50;99.90;;;;;;4897307;29;20213;-83
2023/06/25 05:13:59;;;;;;;194.67;187.77;;;18.60;99.90;;;;;;4929298;28;20257;-83
2023/06/25 05:16:25;;;;;;;176.70;170.57;;;18.90;99.90;;;;;;4929173;28;20886;-83
2023/06/25 05:18:50;;;;;;;184.93;178.47;;;19.70;99.90;;;;;;4927982;29;20611;-83
2023/06/25 05:21:16;;;;;;;171.30;164.90;;;20.90;99.90;;;;;;4927795;28;20209;-83
2023/06/25 05:24:00;;;;;;;145.03;139.17;;;22.00;99.90;;;;;;4912898;29;20190;-83
2023/06/25 05:26:26;;;;;;;124.63;119.67;;;22.60;99.90;;;;;;4930256;28;20438;-83
2023/06/25 05:28:52;;;;;;;89.53;85.93;;;21.20;99.90;;;;;;4932907;28;20751;-82
2023/06/25 05:31:17;;;;;;;84.57;81.27;;;21.00;99.90;;;;;;4931801;29;20325;-82
2023/06/25 05:33:43;;;;;;;84.67;81.27;;;22.10;99.90;;;;;;4915798;29;20213;-83
2023/06/25 05:36:10;;;;;;;78.90;75.40;;;22.70;99.90;;;;;;4931679;28;20794;-84
2023/06/25 05:38:35;;;;;;;69.17;66.20;;;23.10;99.90;;;;;;4916421;29;20206;-83
2023/06/25 05:41:01;;;;;;;65.95;63.03;;;23.90;99.90;;;;;;4932982;28;20883;-84
2023/06/25 05:43:27;;;;;;;58.35;55.75;;;24.00;99.90;;;;;;4915905;29;20225;-83
2023/06/25 05:45:53;;;;;;;59.35;56.70;;;24.40;99.90;;;;;;4931452;28;20214;-84
2023/06/25 05:48:18;;;;;;;55.78;53.47;;;24.20;99.90;;;;;;4916052;28;20204;-83
2023/06/25 05:50:44;;;;;;;50.80;48.47;;;24.90;99.90;;;;;;4915800;29;20549;-83
2023/06/25 05:53:10;;;;;;;46.90;44.63;;;25.10;99.90;;;;;;4931494;29;20234;-83
2023/06/25 05:55:35;;;;;;;40.42;38.30;;;25.30;99.90;;;;;;4915385;29;20214;-83
2023/06/25 05:58:02;;;;;;;38.65;36.63;;;25.30;99.90;;;;;;4931185;29;20297;-83
2023/06/25 06:00:28;;;;;;;35.97;34.28;;;25.50;99.90;;;;;;4947478;28;20241;-83
2023/06/25 06:02:54;;;;;;;33.22;31.45;;;26.00;99.90;;;;;;4931039;29;20245;-82
2023/06/25 06:05:19;;;;;;;35.33;33.75;;;26.00;99.90;;;;;;4931107;29;20280;-82
2023/06/25 06:07:45;;;;;;;28.45;27.08;;;25.90;99.90;;;;;;4932619;28;20309;-82
2023/06/25 06:10:15;;;;;;;25.65;24.30;;;25.60;99.90;;;;;;4931218;29;20436;-83
2023/06/25 06:12:41;;;;;;;25.98;24.58;;;26.10;99.90;;;;;;4930912;29;20222;-82
2023/06/25 06:15:08;;;;;;;24.13;22.92;;;25.90;99.90;;;;;;4931212;28;20190;-83
2023/06/25 06:17:33;;;;;;;23.27;21.90;;;26.00;99.90;;;;;;4932746;29;20273;-83
2023/06/25 06:19:59;;;;;;;25.13;23.73;;;26.40;99.90;;;;;;4930710;29;20373;-82
2023/06/25 06:22:25;;;;;;;20.83;19.63;;;25.80;99.90;;;;;;4932344;28;20249;-82
2023/06/25 06:24:50;;;;;;;22.58;21.38;;;25.50;99.90;;;;;;4931452;28;20279;-85
2023/06/25 06:27:16;;;;;;;23.60;22.25;;;25.90;99.90;;;;;;4930952;28;20189;-85
2023/06/25 06:29:42;;;;;;;23.15;22.00;;;26.30;99.90;;;;;;4930951;29;20640;-85
2023/06/25 06:32:10;;;;;;;20.25;19.17;;;27.30;99.90;;;;;;4899320;29;20222;-85
2023/06/25 06:34:36;;;;;;;21.75;20.33;;;26.20;99.90;;;;;;4915288;29;20232;-86
2023/06/25 06:37:02;;;;;;;20.92;19.73;;;25.60;99.90;;;;;;4899201;29;20253;-85
2023/06/25 06:39:28;;;;;;;20.77;19.60;;;25.30;99.90;;;;;;4929625;29;20260;-86
2023/06/25 06:41:54;;;;;;;20.00;18.70;;;25.40;99.90;;;;;;4931012;29;20198;-85
2023/06/25 06:44:20;;;;;;;19.48;18.27;;;26.10;99.90;;;;;;4930481;29;20230;-85
2023/06/25 06:46:46;;;;;;;22.73;21.63;;;25.90;99.90;;;;;;4930436;29;20309;-85
2023/06/25 06:49:12;;;;;;;19.95;18.92;;;25.80;99.90;;;;;;4946383;28;20509;-85
2023/06/25 06:51:38;;;;;;;19.25;18.38;;;25.80;99.90;;;;;;4931543;28;20230;-85
2023/06/25 06:54:05;;;;;;;19.95;19.05;;;25.80;99.90;;;;;;4930205;28;20210;-85
2023/06/25 06:56:31;;;;;;;21.50;20.50;;;26.00;99.90;;;;;;4931948;29;20201;-86
2023/06/25 06:59:03;;;;;;;21.15;19.98;;;26.00;99.90;;;;;;4932005;28;20354;-82
2023/06/25 07:01:28;;;;;;;22.00;20.98;;;25.90;99.90;;;;;;4929813;29;20232;-82
2023/06/25 07:03:54;;;;;;;22.45;21.25;;;26.20;99.90;;;;;;4930816;28;20234;-82
2023/06/25 07:06:20;;;;;;;21.88;20.58;;;26.70;99.90;;;;;;4930888;28;20202;-82
2023/06/25 07:08:47;;;;;;;23.77;22.58;;;26.80;99.90;;;;;;4930291;29;20189;-82
2023/06/25 07:11:16;;;;;;;24.05;22.83;;;27.10;99.90;;;;;;4929730;29;20236;-82
2023/06/25 07:13:43;;;;;;;24.88;23.48;;;26.70;99.90;;;;;;4929708;29;20229;-81
2023/06/25 07:16:09;;;;;;;23.95;22.67;;;26.60;99.90;;;;;;4931225;28;20214;-83
2023/06/25 07:18:35;;;;;;;21.77;20.45;;;26.70;99.90;;;;;;4930774;28;20308;-82
2023/06/25 07:21:01;;;;;;;23.50;22.30;;;26.60;99.90;;;;;;4930149;29;20817;-82
2023/06/25 07:23:26;;;;;;;23.83;22.63;;;26.90;99.90;;;;;;4930031;29;20288;-82
2023/06/25 07:25:52;;;;;;;23.88;22.70;;;27.00;99.90;;;;;;4929384;28;20221;-82
2023/06/25 07:28:18;;;;;;;25.88;24.58;;;27.10;99.90;;;;;;4929876;29;20710;-82
2023/06/25 07:30:44;;;;;;;27.42;26.02;;;27.40;99.90;;;;;;4897874;29;20254;-83
2023/06/25 07:33:10;;;;;;;27.75;26.27;;;28.10;99.90;;;;;;4929373;28;20186;-82
2023/06/25 07:35:35;;;;;;;27.48;25.98;;;28.70;99.90;;;;;;4914273;29;20193;-83
2023/06/25 07:38:01;;;;;;;28.00;26.63;;;28.30;99.90;;;;;;4929353;29;20222;-82
2023/06/25 07:40:27;;;;;;;28.88;27.30;;;27.90;99.90;;;;;;4913622;29;20316;-83
2023/06/25 07:42:52;;;;;;;29.17;27.50;;;27.80;99.90;;;;;;4913496;29;20218;-83
2023/06/25 07:45:18;;;;;;;32.22;30.75;;;28.60;99.90;;;;;;4929490;28;20182;-82
2023/06/25 07:47:44;;;;;;;27.92;26.40;;;29.50;99.90;;;;;;4929782;29;20203;-82
2023/06/25 07:50:10;;;;;;;26.25;25.02;;;29.30;99.90;;;;;;4928815;29;20593;-82
2023/06/25 07:52:36;;;;;;;29.02;27.35;;;28.60;99.90;;;;;;4929245;29;20253;-82
2023/06/25 07:55:02;;;;;;;31.52;30.02;;;28.60;99.90;;;;;;4897385;29;20756;-83
2023/06/25 07:57:28;;;;;;;30.17;28.67;;;28.30;99.90;;;;;;4913221;29;20300;-83
2023/06/25 07:59:53;;;;;;;29.40;27.92;;;28.10;99.90;;;;;;4929380;29;20265;-83
2023/06/25 08:02:20;;;;;;;31.73;30.35;;;28.10;99.90;;;;;;4943382;28;20233;-82
2023/06/25 08:04:46;;;;;;;32.17;30.58;;;28.50;99.90;;;;;;4926754;29;20238;-83
2023/06/25 08:07:11;;;;;;;31.40;29.75;;;28.20;99.90;;;;;;4928236;29;20229;-82
2023/06/25 08:09:37;;;;;;;31.58;30.08;;;28.20;99.90;;;;;;4927950;29;20671;-82
2023/06/25 08:12:03;;;;;;;35.78;34.17;;;28.40;99.90;;;;;;4927450;28;20270;-83
2023/06/25 08:14:29;;;;;;;34.40;32.88;;;29.10;99.90;;;;;;4926775;29;20656;-83
2023/06/25 08:16:55;;;;;;;35.38;33.67;;;29.50;99.90;;;;;;4896893;29;20222;-82
2023/06/25 08:19:20;;;;;;;34.25;32.55;;;29.60;99.90;;;;;;4896455;29;20269;-82
2023/06/25 08:21:49;;;;;;;37.45;35.45;;;29.00;99.90;;;;;;4929343;28;20289;-82
2023/06/25 08:24:15;;;;;;;33.75;32.05;;;28.60;99.90;;;;;;4927041;28;20193;-82
2023/06/25 08:26:41;;;;;;;38.58;36.80;;;28.70;99.90;;;;;;4928524;29;20273;-83
2023/06/25 08:29:06;;;;;;;32.85;31.10;;;28.70;99.90;;;;;;4912811;29;20480;-83
2023/06/25 08:31:33;;;;;;;35.65;33.95;;;28.60;99.90;;;;;;4942239;28;20206;-83
2023/06/25 08:33:59;;;;;;;37.83;35.92;;;28.80;99.90;;;;;;4927151;29;20217;-82
2023/06/25 08:36:24;;;;;;;37.55;35.92;;;29.50;99.90;;;;;;4911493;29;20241;-82
2023/06/25 08:38:50;;;;;;;37.60;35.80;;;31.20;99.90;;;;;;4927726;29;20230;-82
2023/06/25 08:41:16;;;;;;;33.63;32.13;;;31.30;99.90;;;;;;4912299;29;20233;-81
2023/06/25 08:43:42;;;;;;;35.88;33.97;;;30.20;99.90;;;;;;4927325;28;20846;-82
2023/06/25 08:46:08;;;;;;;36.53;34.83;;;29.70;99.90;;;;;;4928042;29;20541;-82
2023/06/25 08:48:38;;;;;;;36.40;34.75;;;29.10;99.90;;;;;;4929528;28;20255;-81
2023/06/25 08:51:08;;;;;;;33.78;32.05;;;28.80;99.90;;;;;;4943284;28;20221;-82
2023/06/25 08:53:35;;;;;;;37.30;35.67;;;29.10;99.90;;;;;;4928106;28;20253;-81
2023/06/25 08:56:02;;;;;;;38.55;36.88;;;29.10;99.90;;;;;;4927223;29;20761;-81
2023/06/25 08:58:29;;;;;;;34.40;32.80;;;29.00;99.90;;;;;;4928484;28;20241;-81
2023/06/25 09:00:55;;;;;;;32.00;30.55;;;29.00;99.90;;;;;;4928213;29;20674;-83
2023/06/25 09:03:20;;;;;;;35.00;33.45;;;29.50;99.90;;;;;;4915554;29;20245;-82
2023/06/25 09:05:55;;;;;;;36.38;34.80;;;30.20;99.90;;;;;;4931040;29;20905;-82
2023/06/25 09:08:23;;;;;;;33.83;32.08;;;30.30;99.90;;;;;;4931288;29;20240;-82
2023/06/25 09:10:58;;;;;;;34.10;32.50;;;30.90;99.90;;;;;;4915478;29;20232;-82
2023/06/25 09:13:26;;;;;;;34.03;32.47;;;31.30;99.90;;;;;;4916637;28;20205;-82
2023/06/25 09:15:59;;;;;;;32.00;30.67;;;30.30;99.90;;;;;;4947783;29;20214;-82
2023/06/25 09:18:25;;;;;;;34.42;32.83;;;30.90;99.90;;;;;;4931745;29;20675;-83
2023/06/25 09:20:51;;;;;;;30.65;29.35;;;30.90;99.90;;;;;;4947452;28;20256;-81
2023/06/25 09:23:24;;;;;;;33.78;32.38;;;31.50;99.90;;;;;;4931212;29;20313;-82
2023/06/25 09:25:51;;;;;;;31.02;29.75;;;32.10;99.90;;;;;;4931057;29;20210;-82
2023/06/25 09:28:17;;;;;;;27.65;26.35;;;31.40;99.90;;;;;;4931997;29;20187;-82
2023/06/25 09:30:46;;;;;;;30.92;29.55;;;32.20;99.90;;;;;;4916378;29;20233;-82
2023/06/25 09:33:13;;;;;;;30.00;28.70;;;33.60;99.90;;;;;;4931523;28;20227;-82
2023/06/25 09:35:39;;;;;;;31.70;30.27;;;33.50;99.90;;;;;;4929945;29;20293;-82
2023/06/25 09:38:05;;;;;;;31.35;30.05;;;32.00;99.90;;;;;;4932220;28;20217;-82
2023/06/25 09:40:32;;;;;;;31.17;29.77;;;31.00;99.90;;;;;;4931075;28;20213;-82
2023/06/25 09:42:59;;;;;;;29.52;28.10;;;31.10;99.90;;;;;;4932348;28;20183;-82
2023/06/25 09:45:26;;;;;;;31.52;30.23;;;32.60;99.90;;;;;;4929830;29;20232;-82
2023/06/25 09:47:57;;;;;;;31.40;30.08;;;32.30;99.90;;;;;;4931548;28;20245;-81
2023/06/25 09:50:32;;;;;;;32.53;31.10;;;31.60;99.90;;;;;;4947011;28;20229;-82
2023/06/25 09:52:59;;;;;;;33.65;32.10;;;30.70;99.90;;;;;;4931141;29;20576;-83
2023/06/25 09:55:27;;;;;;;34.85;33.45;;;31.10;99.90;;;;;;4929056;28;20174;-83
2023/06/25 09:57:54;;;;;;;33.22;31.85;;;31.00;99.90;;;;;;4932653;28;20182;-82
2023/06/25 10:00:21;;;;;;;31.95;30.75;;;32.70;99.90;;;;;;4914820;29;20234;-82
2023/06/25 10:02:48;;;;;;;31.02;29.52;;;32.00;99.90;;;;;;4931983;28;20222;-83
2023/06/25 10:05:15;;;;;;;30.55;29.20;;;30.60;99.90;;;;;;4930094;29;20301;-82
2023/06/25 10:07:43;;;;;;;34.13;32.72;;;30.20;99.90;;;;;;4931961;28;20226;-82
2023/06/25 10:10:29;;;;;;;33.30;31.95;;;30.30;99.90;;;;;;4930329;29;20240;-82
2023/06/25 10:12:55;;;;;;;31.90;30.58;;;30.30;99.90;;;;;;4931313;29;20214;-82
2023/06/25 10:15:31;;;;;;;33.60;32.30;;;30.90;99.90;;;;;;4929670;29;20252;-82
2023/06/25 10:17:59;;;;;;;31.20;29.98;;;31.80;99.90;;;;;;4930413;29;20679;-82
2023/06/25 10:20:36;;;;;;;35.00;33.38;;;31.50;99.90;;;;;;4930149;29;20232;-82
2023/06/25 10:23:10;;;;;;;33.90;32.53;;;30.70;99.90;;;;;;4914113;29;20225;-82
2023/06/25 10:25:39;;;;;;;32.58;31.08;;;30.70;99.90;;;;;;4945025;28;20715;-80
2023/06/25 10:28:14;;;;;;;33.05;31.75;;;30.40;99.90;;;;;;4932277;29;20210;-82
2023/06/25 10:30:48;;;;;;;37.08;35.60;;;30.30;99.90;;;;;;4930261;29;20237;-83
2023/06/25 10:33:17;;;;;;;32.35;31.13;;;31.30;99.90;;;;;;4931925;28;20240;-82
2023/06/25 10:35:47;;;;;;;33.65;32.28;;;30.60;99.90;;;;;;4930592;29;20234;-82
2023/06/25 10:38:13;;;;;;;32.63;31.05;;;30.40;99.90;;;;;;4914985;29;20246;-83
2023/06/25 10:40:40;;;;;;;33.10;31.75;;;31.10;99.90;;;;;;4930446;28;20773;-82
2023/06/25 10:43:06;;;;;;;33.60;32.22;;;31.00;99.90;;;;;;4932151;29;20679;-82
2023/06/25 10:45:33;;;;;;;31.50;30.05;;;30.50;99.90;;;;;;4912866;29;20225;-83
2023/06/25 10:48:06;;;;;;;33.35;31.98;;;30.00;99.90;;;;;;4930312;28;20268;-83
2023/06/25 10:50:33;;;;;;;30.45;29.15;;;29.90;99.90;;;;;;4929354;29;20226;-83
2023/06/25 10:52:59;;;;;;;31.30;30.00;;;29.90;99.90;;;;;;4929463;29;20281;-82
2023/06/25 10:55:25;;;;;;;33.13;31.80;;;30.20;99.90;;;;;;4930806;28;20189;-83
2023/06/25 10:57:54;;;;;;;32.80;31.40;;;30.20;99.90;;;;;;4929031;29;20771;-83
2023/06/25 11:00:27;;;;;;;31.35;29.92;;;30.50;99.90;;;;;;4930174;28;20751;-83
2023/06/25 11:02:54;;;;;;;33.00;31.65;;;30.80;99.90;;;;;;4930541;28;20233;-84
2023/06/25 11:05:22;;;;;;;34.05;32.65;;;30.50;99.90;;;;;;4913608;29;20237;-84
2023/06/25 11:07:54;;;;;;;32.03;30.73;;;30.40;99.90;;;;;;4912185;29;20301;-83
2023/06/25 11:10:24;;;;;;;30.10;28.83;;;30.10;99.90;;;;;;4912870;28;20214;-83
2023/06/25 11:12:50;;;;;;;30.98;29.67;;;29.90;99.90;;;;;;4931244;29;20193;-83
2023/06/25 11:15:17;;;;;;;37.45;36.05;;;29.90;99.90;;;;;;4930080;28;20489;-84
2023/06/25 11:17:50;;;;;;;35.75;34.13;;;30.40;99.90;;;;;;4929072;28;20741;-83
2023/06/25 11:20:16;;;;;;;33.88;32.40;;;30.20;99.90;;;;;;4929017;29;20229;-84
2023/06/25 11:22:42;;;;;;;30.83;29.60;;;30.20;99.90;;;;;;4929370;28;20240;-84
2023/06/25 11:25:10;;;;;;;35.45;34.05;;;29.90;99.90;;;;;;4897202;29;20245;-84
2023/06/25 11:27:37;;;;;;;36.08;34.58;;;29.90;99.90;;;;;;4927526;29;20309;-84
2023/06/25 11:30:04;;;;;;;33.28;32.00;;;30.00;99.90;;;;;;4944527;28;20238;-83
2023/06/25 11:32:34;;;;;;;29.23;27.98;;;29.50;99.90;;;;;;4929847;28;20221;-83
2023/06/25 11:35:00;;;;;;;31.65;30.35;;;28.80;99.90;;;;;;4913807;29;20225;-83
2023/06/25 11:37:29;;;;;;;27.30;26.30;;;29.20;99.90;;;;;;4912757;28;20182;-84
2023/06/25 11:39:55;;;;;;;26.30;25.10;;;29.20;99.90;;;;;;4928504;29;20201;-83
2023/06/25 11:42:25;;;;;;;26.52;25.42;;;29.50;99.90;;;;;;4928808;29;20222;-83
2023/06/25 11:45:05;;;;;;;28.55;27.40;;;29.40;99.90;;;;;;4928564;29;20706;-83
2023/06/25 11:47:31;;;;;;;28.30;26.83;;;29.90;99.90;;;;;;4944177;28;20237;-83
2023/06/25 11:49:59;;;;;;;31.52;30.25;;;29.90;99.90;;;;;;4928064;29;20374;-83
2023/06/25 11:52:25;;;;;;;26.98;25.88;;;30.10;99.90;;;;;;4928521;28;20190;-84
2023/06/25 11:54:51;;;;;;;28.52;27.42;;;30.30;99.90;;;;;;4929432;29;20256;-84
2023/06/25 11:57:18;;;;;;;33.03;31.80;;;30.60;99.90;;;;;;4929302;28;20739;-84
2023/06/25 11:59:44;;;;;;;27.85;26.73;;;30.30;99.90;;;;;;4927471;29;20706;-83
2023/06/25 12:02:11;;;;;;;24.52;23.52;;;30.10;99.90;;;;;;4929239;28;20226;-83
2023/06/25 12:04:37;;;;;;;32.22;30.92;;;30.20;99.90;;;;;;4927872;28;20262;-83
2023/06/25 12:07:03;;;;;;;26.25;25.25;;;30.80;99.90;;;;;;4944510;29;20277;-84
2023/06/25 12:09:29;;;;;;;26.85;25.65;;;31.50;99.90;;;;;;4925973;29;20222;-83
2023/06/25 12:11:55;;;;;;;29.58;28.48;;;32.20;99.90;;;;;;4943872;28;20296;-85
2023/06/25 12:14:21;;;;;;;24.83;23.83;;;31.10;99.90;;;;;;4929494;28;20631;-84
2023/06/25 12:16:47;;;;;;;24.77;23.67;;;30.50;99.90;;;;;;4927384;29;20512;-83